Time;durP1;ratioP1;P1;durP2;ratioP2;P2;SDS_P1;SDS_P2;PMS_P1;PMS_P2;Temp;Humidity;BMP_temperature;BMP_pressure;BME280_temperature;BME280_humidity;BME280_pressure;Samples;Min_cycle;Max_cycle;Signal;HPM_P1;HPM_P2
2024/01/09 00:01:16;;;;;;;4.90;3.08;;;;;;;0.68;45.23;103473.56;5007624;28;97423;-70
2024/01/09 00:03:44;;;;;;;4.95;3.53;;;;;;;0.67;45.19;103484.13;5008165;28;98566;-70
2024/01/09 00:06:14;;;;;;;3.97;2.60;;;;;;;0.67;44.89;103486.78;5000116;27;97970;-70
2024/01/09 00:08:41;;;;;;;4.35;3.42;;;;;;;0.66;45.02;103474.41;4990379;27;97029;-70
2024/01/09 00:11:12;;;;;;;5.72;3.80;;;;;;;0.62;45.12;103482.31;5002274;28;97151;-69
2024/01/09 00:13:40;;;;;;;6.18;4.00;;;;;;;0.62;45.03;103484.97;4999996;28;97681;-70
2024/01/09 00:16:07;;;;;;;6.75;4.00;;;;;;;0.60;45.17;103478.75;5005101;28;99756;-69
2024/01/09 00:18:34;;;;;;;6.55;3.40;;;;;;;0.58;45.22;103483.16;4991705;28;97024;-70
2024/01/09 00:21:01;;;;;;;6.07;4.22;;;;;;;0.57;45.16;103481.38;4995036;28;97120;-70
2024/01/09 00:23:27;;;;;;;5.30;3.28;;;;;;;0.55;45.21;103471.66;4987309;28;97646;-69
2024/01/09 00:25:54;;;;;;;4.88;3.78;;;;;;;0.53;45.24;103476.03;4988232;28;97736;-69
2024/01/09 00:28:22;;;;;;;4.82;3.95;;;;;;;0.48;45.22;103459.22;4989701;28;97469;-70
2024/01/09 00:30:49;;;;;;;5.72;3.90;;;;;;;0.46;45.07;103485.63;5005774;28;98341;-70
2024/01/09 00:33:15;;;;;;;4.85;3.50;;;;;;;0.45;45.32;103482.97;5001172;28;100679;-69
2024/01/09 00:35:43;;;;;;;6.22;3.05;;;;;;;0.44;45.10;103483.84;4998508;28;99918;-69
2024/01/09 00:38:10;;;;;;;5.50;3.83;;;;;;;0.44;45.33;103481.19;4993286;28;96968;-70
2024/01/09 00:40:39;;;;;;;4.60;2.92;;;;;;;0.42;45.22;103483.81;4996007;28;97168;-69
2024/01/09 00:43:06;;;;;;;4.25;2.90;;;;;;;0.40;45.23;103480.28;4983845;28;97688;-70
2024/01/09 00:45:33;;;;;;;5.45;3.65;;;;;;;0.40;45.25;103482.91;5000482;28;97665;-69
2024/01/09 00:48:05;;;;;;;5.63;3.50;;;;;;;0.38;45.22;103479.38;4993229;28;97233;-69
2024/01/09 00:50:31;;;;;;;4.85;3.05;;;;;;;0.37;45.37;103479.34;4993044;28;97366;-70
2024/01/09 00:52:58;;;;;;;5.28;3.22;;;;;;;0.38;45.14;103478.47;5002307;28;97655;-69
2024/01/09 00:55:25;;;;;;;5.20;3.53;;;;;;;0.36;45.37;103477.56;5005710;28;97798;-70
2024/01/09 00:57:51;;;;;;;4.40;3.15;;;;;;;0.36;45.31;103477.56;4999252;28;96768;-70
2024/01/09 01:00:18;;;;;;;4.10;2.70;;;;;;;0.35;45.22;103474.03;4994833;28;97275;-70
2024/01/09 01:02:45;;;;;;;4.45;3.05;;;;;;;0.34;45.43;103469.63;4992935;28;97700;-70
2024/01/09 01:05:15;;;;;;;4.15;3.10;;;;;;;0.34;45.22;103466.97;4992294;28;97970;-70
2024/01/09 01:07:42;;;;;;;6.25;3.80;;;;;;;0.34;45.51;103460.81;4991098;28;97293;-69
2024/01/09 01:10:13;;;;;;;3.55;2.67;;;;;;;0.31;45.26;103474.88;4994770;28;97194;-70
2024/01/09 01:12:45;;;;;;;5.00;3.13;;;;;;;0.31;45.20;103474.88;4998804;28;98196;-69
2024/01/09 01:15:12;;;;;;;5.22;2.92;;;;;;;0.29;45.18;103476.59;4988208;28;97682;-69
2024/01/09 01:17:38;;;;;;;5.10;2.78;;;;;;;0.29;45.22;103471.31;4994086;28;96815;-69
2024/01/09 01:20:06;;;;;;;4.22;2.80;;;;;;;0.27;45.31;103466.00;4999144;28;97784;-70
2024/01/09 01:22:33;;;;;;;3.70;2.92;;;;;;;0.27;45.12;103475.69;5002673;28;97315;-70
2024/01/09 01:25:00;;;;;;;4.70;2.92;;;;;;;0.27;45.29;103480.97;4997615;28;97654;-70
2024/01/09 01:27:26;;;;;;;3.47;2.35;;;;;;;0.27;45.15;103476.56;4997173;28;97822;-69
2024/01/09 01:29:53;;;;;;;5.35;2.83;;;;;;;0.27;45.24;103480.97;4994849;28;97301;-70
2024/01/09 01:32:20;;;;;;;5.72;2.83;;;;;;;0.25;45.30;103478.31;5004342;28;97660;-70
2024/01/09 01:34:46;;;;;;;5.13;3.38;;;;;;;0.26;45.31;103474.81;4994964;28;98043;-70
2024/01/09 01:37:13;;;;;;;5.60;3.40;;;;;;;0.26;45.15;103476.56;5015438;27;97497;-69
2024/01/09 01:39:40;;;;;;;4.82;3.45;;;;;;;0.25;45.32;103482.72;4992318;28;98015;-70
2024/01/09 01:42:06;;;;;;;4.28;2.65;;;;;;;0.23;45.43;103466.84;5001213;28;97706;-70
2024/01/09 01:44:33;;;;;;;4.38;3.10;;;;;;;0.24;45.41;103479.19;5000962;28;97528;-70
2024/01/09 01:47:00;;;;;;;5.20;2.83;;;;;;;0.24;45.35;103475.66;5009025;28;97520;-70
2024/01/09 01:49:27;;;;;;;4.53;3.00;;;;;;;0.23;45.53;103453.63;5015231;28;96859;-70
2024/01/09 01:51:54;;;;;;;4.22;2.92;;;;;;;0.24;45.30;103473.00;5016020;28;97899;-70
2024/01/09 01:54:22;;;;;;;4.00;3.00;;;;;;;0.22;45.39;103470.34;4996932;28;97450;-69
2024/01/09 01:56:50;;;;;;;4.78;2.95;;;;;;;0.22;45.46;103443.03;5000110;28;97715;-70
2024/01/09 01:59:20;;;;;;;4.85;3.50;;;;;;;0.21;45.44;103454.47;5000333;28;96920;-70
2024/01/09 02:01:48;;;;;;;4.47;3.00;;;;;;;0.18;45.52;103452.66;4999802;28;97696;-70
2024/01/09 02:04:18;;;;;;;4.70;3.00;;;;;;;0.18;45.38;103446.50;5004479;28;97593;-70
2024/01/09 02:06:46;;;;;;;4.88;3.28;;;;;;;0.18;45.45;103455.31;4997959;28;97421;-70
2024/01/09 02:09:13;;;;;;;4.43;3.30;;;;;;;0.15;45.51;103455.28;4989235;28;97109;-69
2024/01/09 02:11:40;;;;;;;4.40;2.75;;;;;;;0.12;45.47;103454.34;5007644;28;97913;-70
2024/01/09 02:14:07;;;;;;;5.53;3.22;;;;;;;0.11;45.47;103457.84;5006685;28;98055;-70
2024/01/09 02:16:34;;;;;;;3.65;2.85;;;;;;;0.08;45.47;103455.16;4998527;28;97502;-70
2024/01/09 02:19:01;;;;;;;4.72;2.80;;;;;;;0.08;45.50;103449.88;5016769;27;97341;-70
2024/01/09 02:21:29;;;;;;;5.53;3.42;;;;;;;0.08;45.62;103452.53;4992853;28;97450;-70
2024/01/09 02:23:55;;;;;;;4.97;3.10;;;;;;;0.05;45.60;103447.19;5003163;28;97454;-70
2024/01/09 02:26:31;;;;;;;4.95;2.70;;;;;;;0.03;45.58;103448.94;5000885;27;97731;-70
2024/01/09 02:29:22;;;;;;;5.17;3.27;;;;;;;0.02;45.50;103445.41;4987941;28;97281;-70
2024/01/09 02:31:49;;;;;;;5.43;3.65;;;;;;;0.00;45.72;103441.84;4998153;28;98112;-70
2024/01/09 02:34:17;;;;;;;4.50;3.40;;;;;;;-0.03;45.71;103437.38;5004395;28;97593;-70
2024/01/09 02:36:44;;;;;;;5.47;2.95;;;;;;;-0.06;46.02;103433.81;4997968;28;96847;-70
2024/01/09 02:39:12;;;;;;;7.80;3.25;;;;;;;-0.07;45.91;103429.38;4996100;28;97408;-70
2024/01/09 02:41:38;;;;;;;5.32;3.95;;;;;;;-0.08;45.92;103422.34;5003385;28;97491;-70
2024/01/09 02:44:05;;;;;;;4.35;3.28;;;;;;;-0.13;46.01;103434.59;5001494;28;100325;-70
2024/01/09 02:46:32;;;;;;;5.05;3.58;;;;;;;-0.14;46.08;103422.25;5001774;28;97060;-70
2024/01/09 02:48:59;;;;;;;3.83;3.38;;;;;;;-0.15;46.15;103437.19;5001525;28;97121;-70
2024/01/09 02:51:25;;;;;;;4.78;3.95;;;;;;;-0.16;46.28;103432.78;5003507;28;97566;-70
2024/01/09 02:53:52;;;;;;;7.40;3.85;;;;;;;-0.17;46.08;103446.84;5020933;28;97925;-70
2024/01/09 02:56:18;;;;;;;6.28;3.53;;;;;;;-0.17;46.16;103438.06;5001254;28;96851;-70
2024/01/09 02:58:45;;;;;;;6.57;2.72;;;;;;;-0.18;46.19;103444.19;5003126;28;97408;-70
2024/01/09 03:01:12;;;;;;;5.57;3.45;;;;;;;-0.20;46.35;103440.66;5003963;28;97909;-70
2024/01/09 03:03:39;;;;;;;5.35;3.70;;;;;;;-0.22;46.50;103437.97;4999461;28;100506;-70
2024/01/09 03:06:05;;;;;;;5.40;3.05;;;;;;;-0.22;46.50;103439.72;4995337;28;97228;-70
2024/01/09 03:08:32;;;;;;;5.63;3.28;;;;;;;-0.22;46.38;103437.97;4991646;28;97342;-70
2024/01/09 03:10:59;;;;;;;5.82;3.67;;;;;;;-0.24;46.44;103439.72;4992676;28;99963;-70
2024/01/09 03:13:26;;;;;;;4.10;2.90;;;;;;;-0.25;46.74;103445.84;5005776;28;97502;-70
2024/01/09 03:15:52;;;;;;;6.45;4.05;;;;;;;-0.26;46.68;103438.81;4996194;28;97436;-70
2024/01/09 03:18:19;;;;;;;6.93;3.90;;;;;;;-0.27;46.85;103438.78;5003020;28;97936;-70
2024/01/09 03:20:46;;;;;;;5.97;3.50;;;;;;;-0.27;46.73;103444.06;5012626;28;98036;-70
2024/01/09 03:23:13;;;;;;;6.07;3.55;;;;;;;-0.28;46.74;103439.63;4999083;28;98049;-70
2024/01/09 03:25:40;;;;;;;5.35;4.43;;;;;;;-0.30;46.95;103441.38;5016207;28;96929;-70
2024/01/09 03:28:06;;;;;;;5.53;3.70;;;;;;;-0.33;46.80;103432.53;4995914;28;97844;-69
2024/01/09 03:30:33;;;;;;;4.65;3.55;;;;;;;-0.35;47.18;103431.63;5013413;28;99896;-70
2024/01/09 03:33:00;;;;;;;5.38;3.33;;;;;;;-0.36;47.09;103426.31;4993574;28;98255;-70
2024/01/09 03:35:27;;;;;;;4.53;3.40;;;;;;;-0.36;47.14;103427.22;5009615;28;96920;-70
2024/01/09 03:37:54;;;;;;;7.30;4.32;;;;;;;-0.39;47.01;103423.63;5004228;28;97605;-70
2024/01/09 03:40:21;;;;;;;5.10;3.60;;;;;;;-0.43;46.99;103425.34;5004510;28;98278;-70
2024/01/09 03:42:48;;;;;;;6.65;4.30;;;;;;;-0.43;47.20;103427.97;5004289;28;97629;-70
2024/01/09 03:45:14;;;;;;;6.10;4.35;;;;;;;-0.44;47.17;103417.41;5006393;28;97067;-70
2024/01/09 03:47:41;;;;;;;5.70;3.65;;;;;;;-0.46;47.25;103427.03;5000083;28;97489;-70
2024/01/09 03:50:08;;;;;;;5.95;3.60;;;;;;;-0.47;47.38;103420.00;4996272;28;97800;-70
2024/01/09 03:52:35;;;;;;;3.85;2.88;;;;;;;-0.49;47.32;103419.09;4990111;28;97785;-70
2024/01/09 03:55:01;;;;;;;5.95;3.97;;;;;;;-0.50;47.54;103431.38;5000589;28;97413;-70
2024/01/09 03:57:28;;;;;;;5.32;3.33;;;;;;;-0.51;47.36;103415.53;5005485;28;97081;-70
2024/01/09 03:59:55;;;;;;;5.53;3.90;;;;;;;-0.52;47.31;103429.59;5001677;28;98124;-70
2024/01/09 04:02:22;;;;;;;4.70;4.13;;;;;;;-0.53;47.56;103422.53;4994848;28;98190;-70
2024/01/09 04:04:48;;;;;;;5.32;4.13;;;;;;;-0.54;47.53;103421.66;4997866;28;97126;-70
2024/01/09 04:07:15;;;;;;;5.32;3.67;;;;;;;-0.55;47.57;103430.44;4991684;28;97371;-70
2024/01/09 04:09:41;;;;;;;5.03;3.60;;;;;;;-0.55;47.48;103421.63;4993967;28;98108;-70
2024/01/09 04:12:08;;;;;;;7.07;4.10;;;;;;;-0.55;47.64;103418.97;4996410;28;97628;-70
2024/01/09 04:14:35;;;;;;;7.40;4.57;;;;;;;-0.55;47.50;103426.91;5001421;28;96876;-70
2024/01/09 04:17:03;;;;;;;4.43;3.22;;;;;;;-0.58;47.63;103425.09;5011537;28;96869;-71
2024/01/09 04:19:30;;;;;;;6.55;4.15;;;;;;;-0.59;47.48;103420.69;4987675;28;99625;-70
2024/01/09 04:21:57;;;;;;;6.43;4.15;;;;;;;-0.60;47.69;103402.19;5001787;28;97591;-70
2024/01/09 04:24:23;;;;;;;5.13;4.07;;;;;;;-0.59;47.83;103414.53;5014345;28;96913;-70
2024/01/09 04:26:50;;;;;;;4.75;3.88;;;;;;;-0.61;47.77;103419.78;5004996;27;97357;-70
2024/01/09 04:29:17;;;;;;;5.72;3.47;;;;;;;-0.60;47.63;103420.66;4997243;28;98476;-70
2024/01/09 04:31:43;;;;;;;8.93;3.88;;;;;;;-0.60;47.68;103421.53;5003884;28;98314;-70
2024/01/09 04:34:10;;;;;;;6.13;4.13;;;;;;;-0.62;47.76;103415.34;4995175;28;96853;-70
2024/01/09 04:36:37;;;;;;;5.07;3.38;;;;;;;-0.60;47.67;103423.31;5008238;27;96930;-70
2024/01/09 04:39:04;;;;;;;6.22;3.78;;;;;;;-0.60;47.87;103420.66;5000216;28;97746;-71
2024/01/09 04:41:31;;;;;;;5.55;3.08;;;;;;;-0.55;47.88;103418.97;4994331;28;97535;-70
2024/01/09 04:43:57;;;;;;;5.00;3.40;;;;;;;-0.55;47.74;103422.50;4989945;28;97704;-70
2024/01/09 04:46:24;;;;;;;5.95;4.25;;;;;;;-0.57;47.60;103412.78;4994776;28;97417;-70
2024/01/09 04:48:51;;;;;;;3.67;2.92;;;;;;;-0.56;47.48;103425.13;4987569;28;97692;-70
2024/01/09 04:51:18;;;;;;;5.88;3.97;;;;;;;-0.56;47.76;103419.84;4996763;28;97786;-70
2024/01/09 04:53:45;;;;;;;5.43;4.15;;;;;;;-0.58;47.64;103425.09;4997542;28;99941;-71
2024/01/09 04:56:12;;;;;;;5.20;3.75;;;;;;;-0.59;47.66;103419.78;4999887;28;97612;-70
2024/01/09 04:58:38;;;;;;;5.32;3.75;;;;;;;-0.59;47.59;103417.16;4997990;28;97385;-70
2024/01/09 05:01:10;;;;;;;6.05;3.65;;;;;;;-0.61;47.53;103417.13;5004137;28;97779;-70
2024/01/09 05:03:38;;;;;;;5.45;4.45;;;;;;;-0.62;47.55;103406.56;4999079;28;97245;-70
2024/01/09 05:06:05;;;;;;;5.32;3.78;;;;;;;-0.63;47.42;103415.34;5002233;28;97104;-70
2024/01/09 05:08:32;;;;;;;5.03;3.08;;;;;;;-0.62;47.53;103417.09;4991857;28;98344;-70
2024/01/09 05:10:58;;;;;;;6.13;3.88;;;;;;;-0.59;47.17;103411.88;4996905;28;97865;-71
2024/01/09 05:13:26;;;;;;;4.95;4.22;;;;;;;-0.58;47.29;103413.66;4990375;28;97070;-70
2024/01/09 05:15:52;;;;;;;5.50;3.72;;;;;;;-0.57;47.28;103421.59;5000963;28;97235;-70
2024/01/09 05:18:19;;;;;;;4.82;3.25;;;;;;;-0.56;47.20;103419.84;4996428;27;98037;-70
2024/01/09 05:20:46;;;;;;;5.03;4.07;;;;;;;-0.56;47.10;103410.19;5000723;28;97505;-70
2024/01/09 05:23:13;;;;;;;6.75;4.32;;;;;;;-0.55;46.99;103429.53;5004372;28;97427;-70
2024/01/09 05:25:40;;;;;;;6.13;3.90;;;;;;;-0.54;47.25;103420.75;4993876;28;97206;-70
2024/01/09 05:28:06;;;;;;;7.60;4.28;;;;;;;-0.56;46.98;103417.22;5000327;28;98935;-70
2024/01/09 05:30:33;;;;;;;5.63;3.45;;;;;;;-0.56;46.95;103412.81;4991879;28;97954;-70
2024/01/09 05:33:00;;;;;;;5.18;4.18;;;;;;;-0.57;47.00;103426.00;4997600;28;97270;-70
2024/01/09 05:35:27;;;;;;;6.07;4.10;;;;;;;-0.58;46.75;103419.81;4993023;28;97171;-70
2024/01/09 05:37:53;;;;;;;7.10;3.90;;;;;;;-0.57;46.75;103428.63;4999789;28;100217;-70
2024/01/09 05:40:33;;;;;;;7.47;4.13;;;;;;;-0.57;46.93;103426.00;5001995;28;97515;-70
2024/01/09 05:43:00;;;;;;;4.97;4.30;;;;;;;-0.58;46.44;103413.66;5006212;28;96949;-70
2024/01/09 05:45:26;;;;;;;7.20;4.47;;;;;;;-0.60;46.80;103428.56;4978096;28;97881;-70
2024/01/09 05:47:53;;;;;;;7.05;3.63;;;;;;;-0.65;46.75;103423.22;4983561;28;97973;-70
2024/01/09 05:50:20;;;;;;;5.88;4.10;;;;;;;-0.68;46.53;103429.34;4988613;28;97596;-70
2024/01/09 05:52:46;;;;;;;6.40;4.47;;;;;;;-0.69;46.73;103432.84;4985580;28;97482;-71
2024/01/09 05:55:13;;;;;;;5.78;4.25;;;;;;;-0.69;46.60;103424.94;4988686;28;97414;-70
2024/01/09 05:57:40;;;;;;;6.32;3.35;;;;;;;-0.69;46.64;103435.47;4994597;28;99067;-70
2024/01/09 06:00:10;;;;;;;5.20;3.70;;;;;;;-0.70;46.60;103428.44;4996782;28;99272;-70
2024/01/09 06:02:37;;;;;;;6.35;3.60;;;;;;;-0.70;46.60;103438.09;4989945;28;96864;-70
2024/01/09 06:05:04;;;;;;;7.90;3.85;;;;;;;-0.72;46.90;103438.06;5001259;28;97086;-70
2024/01/09 06:07:31;;;;;;;7.40;3.83;;;;;;;-0.72;46.47;103440.72;4998477;28;99699;-69
2024/01/09 06:09:58;;;;;;;6.95;5.55;;;;;;;-0.74;46.69;103442.44;5003112;28;98138;-70
2024/01/09 06:12:24;;;;;;;7.30;4.63;;;;;;;-0.78;46.58;103440.56;4998176;28;97602;-70
2024/01/09 06:14:51;;;;;;;6.95;5.30;;;;;;;-0.82;46.76;103445.75;5000554;28;97421;-70
2024/01/09 06:17:18;;;;;;;6.70;4.57;;;;;;;-0.84;46.62;103451.00;4995280;28;97702;-70
2024/01/09 06:19:44;;;;;;;6.68;5.38;;;;;;;-0.86;46.65;103452.75;5010104;28;97498;-70
2024/01/09 06:22:12;;;;;;;7.22;4.65;;;;;;;-0.89;46.63;103452.69;5024165;27;97465;-70
2024/01/09 06:24:38;;;;;;;7.28;4.70;;;;;;;-0.89;46.74;103462.34;5008860;28;97004;-70
2024/01/09 06:27:05;;;;;;;6.82;4.50;;;;;;;-0.90;46.77;103463.22;4998818;28;97564;-70
2024/01/09 06:29:32;;;;;;;6.40;4.50;;;;;;;-0.93;46.50;103464.03;5005154;28;97583;-70
2024/01/09 06:31:58;;;;;;;10.70;4.43;;;;;;;-0.94;46.85;103459.63;5010361;28;97085;-70
2024/01/09 06:34:25;;;;;;;7.30;5.07;;;;;;;-0.96;46.66;103466.63;5005181;28;96997;-70
2024/01/09 06:36:52;;;;;;;8.23;4.60;;;;;;;-0.97;46.75;103465.75;4992662;28;98401;-69
2024/01/09 06:39:18;;;;;;;8.25;4.95;;;;;;;-0.96;46.94;103474.53;4996534;28;97514;-70
2024/01/09 06:41:46;;;;;;;7.07;5.13;;;;;;;-0.96;46.76;103469.25;5001494;28;97923;-70
2024/01/09 06:44:12;;;;;;;6.78;4.95;;;;;;;-0.98;46.69;103463.06;4999347;28;97205;-70
2024/01/09 06:46:39;;;;;;;8.05;5.03;;;;;;;-0.99;46.75;103466.56;4992937;28;97697;-70
2024/01/09 06:49:06;;;;;;;7.63;5.32;;;;;;;-1.03;46.75;103475.28;5009710;27;97500;-70
2024/01/09 06:51:32;;;;;;;7.57;5.35;;;;;;;-1.06;46.65;103475.22;5003659;28;97081;-70
2024/01/09 06:53:59;;;;;;;8.00;5.20;;;;;;;-1.08;46.45;103483.09;5015715;27;97319;-70
2024/01/09 06:56:26;;;;;;;7.30;5.15;;;;;;;-1.11;46.63;103467.22;5003791;28;97689;-70
2024/01/09 06:58:54;;;;;;;7.40;4.55;;;;;;;-1.14;46.61;103472.44;4999297;28;98749;-70
2024/01/09 07:01:20;;;;;;;7.45;5.15;;;;;;;-1.16;46.61;103471.53;5003621;28;96826;-70
2024/01/09 07:03:48;;;;;;;8.77;4.97;;;;;;;-1.17;46.71;103460.94;4998178;28;96917;-70
2024/01/09 07:06:15;;;;;;;8.55;4.80;;;;;;;-1.20;46.53;103472.31;5005240;28;97479;-70
2024/01/09 07:08:42;;;;;;;7.10;5.15;;;;;;;-1.21;46.77;103473.19;5002988;28;98510;-70
2024/01/09 07:11:08;;;;;;;8.25;6.32;;;;;;;-1.24;46.60;103466.97;4996813;28;96892;-70
2024/01/09 07:13:35;;;;;;;8.73;5.68;;;;;;;-1.27;46.54;103477.44;5010052;28;97127;-70
2024/01/09 07:16:03;;;;;;;8.27;5.75;;;;;;;-1.30;46.87;103476.53;4998018;28;97567;-69
2024/01/09 07:18:30;;;;;;;6.82;5.10;;;;;;;-1.31;46.67;103482.66;4999714;28;97599;-70
2024/01/09 07:20:57;;;;;;;6.85;4.97;;;;;;;-1.33;46.91;103492.28;5004974;28;97075;-70
2024/01/09 07:23:24;;;;;;;7.47;5.03;;;;;;;-1.35;46.84;103488.72;5005708;27;98221;-69
2024/01/09 07:25:51;;;;;;;9.23;5.72;;;;;;;-1.34;46.71;103485.25;4997146;28;97404;-69
2024/01/09 07:28:18;;;;;;;7.35;5.40;;;;;;;-1.37;46.77;103482.53;4987993;28;97744;-70
2024/01/09 07:30:45;;;;;;;6.93;4.95;;;;;;;-1.40;46.52;103489.50;5014020;27;98020;-70
2024/01/09 07:33:12;;;;;;;6.93;4.60;;;;;;;-1.42;46.60;103486.81;4999500;28;97178;-69
2024/01/09 07:35:39;;;;;;;8.05;5.72;;;;;;;-1.43;46.75;103473.63;4991979;28;97675;-70
2024/01/09 07:38:07;;;;;;;7.88;6.10;;;;;;;-1.46;46.71;103492.91;4987160;28;98826;-69
2024/01/09 07:40:33;;;;;;;7.32;4.15;;;;;;;-1.48;46.86;103486.69;5014096;27;98153;-70
2024/01/09 07:43:00;;;;;;;9.95;5.40;;;;;;;-1.49;46.89;103494.53;5002154;27;97335;-71
2024/01/09 07:45:28;;;;;;;11.23;5.25;;;;;;;-1.50;46.86;103495.41;4992070;28;97628;-70
2024/01/09 07:47:55;;;;;;;10.38;5.22;;;;;;;-1.49;46.83;103499.81;5006710;28;97695;-70
2024/01/09 07:50:22;;;;;;;7.45;4.88;;;;;;;-1.48;46.98;103506.91;5012720;28;98630;-70
2024/01/09 07:52:49;;;;;;;7.22;5.88;;;;;;;-1.50;46.97;103496.28;5014616;28;97264;-70
2024/01/09 07:55:16;;;;;;;8.95;5.60;;;;;;;-1.50;47.12;103508.56;5001435;28;98387;-70
2024/01/09 07:57:42;;;;;;;7.40;4.35;;;;;;;-1.50;46.79;103511.22;4994159;28;97950;-70
2024/01/09 08:00:09;;;;;;;7.95;5.22;;;;;;;-1.51;46.80;103510.31;4997644;28;97337;-70
2024/01/09 08:02:39;;;;;;;7.57;6.22;;;;;;;-1.50;46.87;103493.66;4998806;28;97299;-69
2024/01/09 08:05:06;;;;;;;7.55;5.28;;;;;;;-1.50;46.99;103500.66;4997194;28;98384;-69
2024/01/09 08:07:32;;;;;;;8.65;6.10;;;;;;;-1.51;46.78;103512.97;4997902;28;97560;-70
2024/01/09 08:09:59;;;;;;;7.80;5.05;;;;;;;-1.50;47.13;103504.19;5005954;28;99026;-70
2024/01/09 08:12:26;;;;;;;7.60;4.53;;;;;;;-1.47;46.91;103511.31;5002998;28;97607;-70
2024/01/09 08:14:53;;;;;;;9.32;5.85;;;;;;;-1.48;47.06;103510.41;4995905;28;97669;-70
2024/01/09 08:17:20;;;;;;;4.78;3.92;;;;;;;-1.47;46.78;103513.94;4985667;28;97325;-70
2024/01/09 08:19:47;;;;;;;8.20;6.32;;;;;;;-1.47;46.68;103519.22;5002216;28;98244;-70
2024/01/09 08:22:14;;;;;;;10.15;5.63;;;;;;;-1.47;46.61;103513.94;4995096;28;97196;-70
2024/01/09 08:24:40;;;;;;;6.78;4.97;;;;;;;-1.46;46.64;103524.53;4993666;28;97426;-70
2024/01/09 08:27:07;;;;;;;6.63;5.10;;;;;;;-1.43;46.75;103521.94;5007410;27;100331;-70
2024/01/09 08:29:34;;;;;;;8.07;5.00;;;;;;;-1.40;46.59;103529.03;4985399;28;97052;-70
2024/01/09 08:32:02;;;;;;;5.38;4.10;;;;;;;-1.37;46.58;103527.34;4987832;28;96839;-70
2024/01/09 08:34:28;;;;;;;9.27;5.22;;;;;;;-1.31;46.52;103530.09;5004945;28;97448;-70
2024/01/09 08:36:55;;;;;;;9.63;5.78;;;;;;;-1.27;46.78;103524.91;5004741;28;97587;-70
2024/01/09 08:39:22;;;;;;;9.82;5.60;;;;;;;-1.24;46.42;103524.97;4993140;28;99271;-70
2024/01/09 08:41:49;;;;;;;7.63;5.05;;;;;;;-1.20;46.29;103529.44;4994810;28;97275;-70
2024/01/09 08:44:17;;;;;;;7.22;5.40;;;;;;;-1.20;46.26;103530.34;5000432;28;97410;-70
2024/01/09 08:46:44;;;;;;;7.95;4.80;;;;;;;-1.15;46.08;103535.69;5007381;28;98482;-70
2024/01/09 08:49:12;;;;;;;7.80;4.80;;;;;;;-1.13;45.96;103533.97;5010076;28;96916;-69
2024/01/09 08:51:39;;;;;;;8.25;4.75;;;;;;;-1.12;45.74;103534.00;5005958;27;96895;-70
2024/01/09 08:54:07;;;;;;;8.98;6.18;;;;;;;-1.09;45.70;103523.53;5016498;28;98241;-70
2024/01/09 08:56:33;;;;;;;7.10;5.22;;;;;;;-1.06;45.72;103525.34;4995070;28;97850;-69
2024/01/09 08:59:00;;;;;;;7.15;4.78;;;;;;;-1.04;45.70;103532.41;4990702;28;97100;-70
2024/01/09 09:01:28;;;;;;;7.97;4.68;;;;;;;-1.00;45.54;103536.00;5000472;28;97419;-69
2024/01/09 09:03:56;;;;;;;8.70;5.30;;;;;;;-0.93;45.60;103531.72;4996560;27;97783;-70
2024/01/09 09:06:23;;;;;;;7.72;5.28;;;;;;;-0.91;45.56;103532.66;5009682;28;98019;-69
2024/01/09 09:08:49;;;;;;;8.02;4.72;;;;;;;-0.88;45.44;103536.25;4999348;28;97067;-70
2024/01/09 09:11:16;;;;;;;8.65;4.45;;;;;;;-0.85;45.27;103544.22;4991244;28;97375;-70
2024/01/09 09:13:44;;;;;;;6.43;3.47;;;;;;;-0.82;45.23;103528.44;4994693;28;97830;-70
2024/01/09 09:16:11;;;;;;;9.23;5.40;;;;;;;-0.78;45.32;103545.22;5011739;28;97570;-69
2024/01/09 09:18:38;;;;;;;6.55;4.45;;;;;;;-0.76;45.21;103539.09;5002889;28;97241;-70
2024/01/09 09:21:05;;;;;;;7.18;5.05;;;;;;;-0.70;45.11;103539.25;5005072;28;96819;-70
2024/01/09 09:23:33;;;;;;;6.35;4.18;;;;;;;-0.66;44.92;103535.81;4985483;28;98237;-71
2024/01/09 09:26:01;;;;;;;6.70;4.93;;;;;;;-0.61;44.95;103533.25;4998190;28;99841;-69
2024/01/09 09:28:27;;;;;;;6.60;4.47;;;;;;;-0.54;44.78;103539.53;4992921;28;97458;-70
2024/01/09 09:31:06;;;;;;;7.45;3.95;;;;;;;-0.48;44.71;103545.81;4992296;28;97770;-69
2024/01/09 09:33:34;;;;;;;7.00;4.53;;;;;;;-0.42;44.74;103545.03;5014311;28;98545;-70
2024/01/09 09:36:05;;;;;;;6.97;4.45;;;;;;;-0.38;44.47;103547.75;5003848;28;97812;-70
2024/01/09 09:38:33;;;;;;;6.93;4.82;;;;;;;-0.32;44.46;103546.97;5014355;28;96895;-70
2024/01/09 09:41:07;;;;;;;5.25;3.33;;;;;;;-0.26;44.41;103548.81;5004331;28;97552;-69
2024/01/09 09:43:37;;;;;;;6.63;4.38;;;;;;;-0.23;44.44;103547.13;4996059;28;98534;-69
2024/01/09 09:46:11;;;;;;;5.72;3.83;;;;;;;-0.19;44.22;103551.59;5001748;28;97913;-70
2024/01/09 09:48:39;;;;;;;5.68;4.43;;;;;;;-0.13;44.20;103542.88;5016114;28;97651;-70
2024/01/09 09:51:08;;;;;;;8.05;5.03;;;;;;;-0.08;44.13;103541.19;5007111;28;97211;-70
2024/01/09 09:53:36;;;;;;;5.70;4.10;;;;;;;-0.06;43.90;103537.72;5015294;28;100775;-70
2024/01/09 09:56:02;;;;;;;6.68;4.20;;;;;;;-0.01;43.72;103548.34;5006188;28;97371;-70
2024/01/09 09:58:31;;;;;;;8.55;4.45;;;;;;;0.03;43.90;103546.69;5007633;28;97318;-70
2024/01/09 10:00:59;;;;;;;5.15;4.05;;;;;;;0.05;43.58;103552.88;4993630;28;97094;-70
2024/01/09 10:03:34;;;;;;;8.50;5.30;;;;;;;0.09;43.63;103549.41;5001176;28;98773;-70
2024/01/09 10:06:04;;;;;;;;;;;;;;;0.14;43.66;103551.25;4993424;28;98349;-70
2024/01/09 10:08:33;;;;;;;6.38;4.07;;;;;;;0.18;43.47;103545.16;4990690;28;97785;-70
2024/01/09 10:11:01;;;;;;;6.72;4.50;;;;;;;0.20;43.39;103546.06;5015431;28;96986;-70
2024/01/09 10:13:28;;;;;;;7.30;4.28;;;;;;;0.22;43.21;103544.34;4996596;28;99706;-70
2024/01/09 10:15:58;;;;;;;9.18;4.65;;;;;;;0.26;43.06;103537.34;5007392;28;97520;-71
2024/01/09 10:18:30;;;;;;;6.10;4.30;;;;;;;0.29;43.09;103533.00;4999663;28;97293;-70
2024/01/09 10:21:00;;;;;;;5.97;4.00;;;;;;;0.35;43.36;103533.94;5009486;28;97077;-70
2024/01/09 10:23:28;;;;;;;5.90;4.43;;;;;;;0.40;42.88;103529.59;5002507;28;98077;-70
2024/01/09 10:25:55;;;;;;;6.30;3.88;;;;;;;0.45;42.83;103536.75;4995497;28;97510;-70
2024/01/09 10:28:23;;;;;;;6.85;4.38;;;;;;;0.51;42.78;103530.66;5001817;28;97264;-70
2024/01/09 10:30:52;;;;;;;5.68;4.20;;;;;;;0.56;42.44;103513.97;5005526;28;97212;-70
2024/01/09 10:33:20;;;;;;;5.53;3.38;;;;;;;0.61;42.30;103521.97;5006525;28;97549;-70
2024/01/09 10:35:47;;;;;;;6.25;3.83;;;;;;;0.68;42.58;103512.34;5006243;28;98364;-70
2024/01/09 10:38:14;;;;;;;7.63;3.92;;;;;;;0.73;42.20;103508.00;5008496;28;100347;-70
2024/01/09 10:40:40;;;;;;;8.10;4.10;;;;;;;0.79;42.24;103505.47;5004753;28;97221;-70
2024/01/09 10:43:07;;;;;;;5.95;3.78;;;;;;;0.84;41.97;103504.66;5019502;27;100036;-70
2024/01/09 10:45:35;;;;;;;6.25;3.95;;;;;;;0.92;41.75;103502.09;5008701;28;97635;-70
2024/01/09 10:48:04;;;;;;;5.20;3.45;;;;;;;1.01;41.75;103499.53;4992361;28;98161;-70
2024/01/09 10:50:32;;;;;;;5.47;3.78;;;;;;;1.09;41.70;103499.63;4998821;28;97695;-70
2024/01/09 10:52:59;;;;;;;5.93;3.55;;;;;;;1.15;41.58;103484.69;5016778;27;97726;-70
2024/01/09 10:55:26;;;;;;;5.90;4.30;;;;;;;1.21;41.20;103482.13;5012282;28;97600;-70
2024/01/09 10:57:53;;;;;;;4.88;3.75;;;;;;;1.25;40.74;103483.91;5005954;28;96947;-70
2024/01/09 11:00:21;;;;;;;7.97;3.95;;;;;;;1.30;40.79;103494.56;5007772;28;97551;-70
2024/01/09 11:02:48;;;;;;;7.07;4.13;;;;;;;1.34;40.36;103482.22;5012551;28;97664;-70
2024/01/09 11:05:15;;;;;;;6.32;3.60;;;;;;;1.39;40.48;103475.22;5001185;28;97773;-70
2024/01/09 11:07:44;;;;;;;7.40;3.30;;;;;;;1.45;40.21;103478.81;5002212;27;97282;-70
2024/01/09 11:10:16;;;;;;;7.78;3.47;;;;;;;1.50;40.00;103474.47;5004448;28;97068;-70
2024/01/09 11:12:49;;;;;;;4.35;3.63;;;;;;;1.56;39.71;103466.56;5013607;28;97526;-70
2024/01/09 11:15:26;;;;;;;4.38;3.00;;;;;;;1.61;39.61;103471.91;4994258;28;97592;-70
2024/01/09 11:18:04;;;;;;;4.60;2.95;;;;;;;1.67;39.57;103461.34;5018248;28;97504;-70
2024/01/09 11:20:32;;;;;;;4.70;3.63;;;;;;;1.70;39.52;103461.38;5015916;28;97526;-70
2024/01/09 11:22:59;;;;;;;4.68;3.45;;;;;;;1.73;39.13;103450.81;5014981;28;97534;-69
2024/01/09 11:25:29;;;;;;;4.53;3.67;;;;;;;1.77;39.03;103442.00;5011887;28;97556;-70
2024/01/09 11:27:57;;;;;;;4.50;3.17;;;;;;;1.80;38.89;103442.03;5002895;28;97181;-70
2024/01/09 11:30:30;;;;;;;5.00;3.67;;;;;;;1.87;39.20;103442.94;4992881;28;97141;-69